Time;durP1;ratioP1;P1;durP2;ratioP2;P2;SDS_P1;SDS_P2;PMS_P1;PMS_P2;Temp;Humidity;BMP_temperature;BMP_pressure;BME280_temperature;BME280_humidity;BME280_pressure;Samples;Min_cycle;Max_cycle;Signal;HPM_P1;HPM_P2
2022/11/01 00:01:09;;;;;;;;;;;;;;;;;;5090281;28;19986;-41
2022/11/01 00:03:34;;;;;;;;;;;;;;;;;;5110898;28;19911;-41
2022/11/01 00:06:00;;;;;;;;;;;;;;;;;;5092543;28;20386;-40
2022/11/01 00:08:26;;;;;;;;;;;;;;;;;;5080704;28;19923;-41
2022/11/01 00:10:54;;;;;;;;;;;;;;;;;;5069236;28;19932;-41
2022/11/01 00:13:23;;;;;;;;;;;;;;;;;;5069491;28;19951;-41
2022/11/01 00:15:49;;;;;;;;;;;;;;;;;;5069214;28;19943;-41
2022/11/01 00:18:15;;;;;;;;;;;;;;;;;;5068856;28;19955;-43
2022/11/01 00:20:41;;;;;;;;;;;;;;;;;;5051323;28;20335;-43
2022/11/01 00:23:07;;;;;;;;;;;;;;;;;;5069542;28;20417;-43
2022/11/01 00:25:33;;;;;;;;;;;;;;;;;;5069437;28;19913;-43
2022/11/01 00:27:58;;;;;;;;;;;;;;;;;;5068916;28;20030;-44
2022/11/01 00:30:24;;;;;;;;;;;;;;;;;;5051119;28;19911;-42
2022/11/01 00:32:50;;;;;;;;;;;;;;;;;;5068980;28;19904;-42
2022/11/01 00:35:16;;;;;;;;;;;;;;;;;;5068989;28;19904;-42
2022/11/01 00:37:44;;;;;;;;;;;;;;;;;;5068921;28;19911;-42
2022/11/01 00:40:10;;;;;;;;;;;;;;;;;;5056727;28;19908;-42
2022/11/01 00:42:36;;;;;;;;;;;;;;;;;;5089812;28;20388;-42
2022/11/01 00:45:03;;;;;;;;;;;;;;;;;;5088698;28;19904;-43
2022/11/01 00:47:29;;;;;;;;;;;;;;;;;;5088749;28;19999;-43
2022/11/01 00:49:55;;;;;;;;;;;;;;;;;;5088679;28;19999;-44
2022/11/01 00:52:21;;;;;;;;;;;;;;;;;;5088924;28;19904;-42
2022/11/01 00:54:47;;;;;;;;;;;;;;;;;;5087794;28;19908;-43
2022/11/01 06:02:20;;;;;;;;;;;;;;;;;;5070870;28;19924;-40
2022/11/01 06:04:46;;;;;;;;;;;;;;;;;;5071746;28;19908;-40
2022/11/01 06:07:12;;;;;;;;;;;;;;;;;;5071862;28;20346;-40
2022/11/01 06:09:37;;;;;;;;;;;;;;;;;;5084547;28;19904;-40
2022/11/01 06:12:03;;;;;;;;;;;;;;;;;;5076971;28;19908;-40
2022/11/01 06:14:29;;;;;;;;;;;;;;;;;;5070902;28;19958;-40
2022/11/01 06:16:55;;;;;;;;;;;;;;;;;;5074486;28;19912;-40
2022/11/01 06:19:21;;;;;;;;;;;;;;;;;;5089143;28;20550;-40
2022/11/01 06:21:47;;;;;;;;;;;;;;;;;;5088239;28;19912;-40
2022/11/01 06:24:13;;;;;;;;;;;;;;;;;;5089441;28;19953;-40
2022/11/01 06:26:39;;;;;;;;;;;;;;;;;;5088925;28;19912;-40
2022/11/01 06:29:05;;;;;;;;;;;;;;;;;;5077506;28;19904;-40
2022/11/01 06:31:31;;;;;;;;;;;;;;;;;;5075401;28;19989;-40
2022/11/01 06:33:57;;;;;;;;;;;;;;;;;;5070241;28;19912;-40
2022/11/01 06:36:23;;;;;;;;;;;;;;;;;;5089867;28;19923;-40
2022/11/01 06:38:49;;;;;;;;;;;;;;;;;;5064072;28;19908;-40
2022/11/01 06:41:15;;;;;;;;;;;;;;;;;;5074342;28;19908;-40
2022/11/01 06:43:41;;;;;;;;;;;;;;;;;;5069414;28;19916;-40
2022/11/01 06:46:07;;;;;;;;;;;;;;;;;;5074415;28;20011;-40
2022/11/01 06:48:34;;;;;;;;;;;;;;;;;;5089005;28;19923;-40
2022/11/01 06:51:00;;;;;;;;;;;;;;;;;;5089730;28;19958;-40
2022/11/01 06:53:26;;;;;;;2.63;1.65;;;;;;;;;;5091155;28;20447;-40
2022/11/01 06:55:52;;;;;;;1.90;1.42;;;;;;;;;;5074459;28;20040;-40
2022/11/01 06:58:18;;;;;;;1.80;1.27;;;;;;;;;;5072477;28;20029;-40
2022/11/01 07:00:44;;;;;;;1.58;1.40;;;;;;;;;;5085921;28;20031;-40
2022/11/01 07:03:11;;;;;;;1.42;1.13;;;;;;;;;;5092855;28;20020;-40
2022/11/01 07:05:38;;;;;;;1.23;0.90;;;;;;;;;;5092970;28;20032;-40
2022/11/01 07:08:08;;;;;;;1.63;1.17;;;;;;;;;;5090912;28;20016;-40
2022/11/01 07:10:35;;;;;;;1.20;1.10;;;;;;;;;;5091155;28;20024;-40
2022/11/01 07:13:02;;;;;;;1.67;0.98;;;;;;;;;;5092612;28;20020;-40
2022/11/01 07:15:29;;;;;;;1.20;1.10;;;;;;;;;;5092522;28;20031;-40
2022/11/01 07:17:58;;;;;;;1.17;1.08;;;;;;;;;;5091786;28;20079;-40
2022/11/01 07:20:26;;;;;;;1.10;1.00;;;;;;;;;;5072389;28;20099;-40
2022/11/01 07:23:02;;;;;;;1.55;1.35;;;;;;;;;;5076643;28;20031;-40
2022/11/01 07:25:29;;;;;;;1.30;1.20;;;;;;;;;;5087570;28;20028;-40
2022/11/01 07:27:55;;;;;;;1.50;1.20;;;;;;;;;;5083032;28;20098;-40
2022/11/01 07:30:21;;;;;;;1.48;1.10;;;;;;;;;;5088387;28;20111;-40
2022/11/01 07:32:47;;;;;;;0.90;0.88;;;;;;;;;;5082914;28;20024;-40
2022/11/01 07:35:14;;;;;;;1.40;1.30;;;;;;;;;;5085131;28;20478;-40
2022/11/01 07:37:40;;;;;;;1.05;0.95;;;;;;;;;;5090188;28;20035;-40
2022/11/01 07:40:06;;;;;;;1.58;1.25;;;;;;;;;;5081296;28;20494;-40
2022/11/01 07:42:32;;;;;;;1.13;1.02;;;;;;;;;;5087212;28;20035;-40
2022/11/01 07:44:58;;;;;;;1.60;1.17;;;;;;;;;;5078992;28;20020;-40
2022/11/01 07:47:24;;;;;;;0.75;0.75;;;;;;;;;;5078578;28;20028;-40
2022/11/01 07:49:50;;;;;;;;;;;;;;;;;;5079015;28;20414;-40
2022/11/01 07:52:16;;;;;;;;;;;;;;;;;;5091108;28;19931;-40
2022/11/01 07:54:42;;;;;;;;;;;;;;;;;;5087791;28;19908;-40
2022/11/01 07:57:08;;;;;;;;;;;;;;;;;;5108005;28;19921;-40
2022/11/01 07:59:35;;;;;;;;;;;;;;;;;;5089649;28;19908;-40
2022/11/01 08:02:01;;;;;;;;;;;;;;;;;;5104233;28;19911;-40
2022/11/01 08:04:27;;;;;;;;;;;;;;;;;;5073967;28;19947;-40
2022/11/01 08:06:54;;;;;;;;;;;;;;;;;;5090202;28;19908;-40
2022/11/01 08:09:21;;;;;;;;;;;;;;;;;;5089046;28;19915;-40
2022/11/01 08:11:47;;;;;;;;;;;;;;;;;;5089639;28;19911;-40
2022/11/01 08:14:13;;;;;;;;;;;;;;;;;;5087173;28;19904;-40
2022/11/01 08:16:39;;;;;;;;;;;;;;;;;;5090093;28;19959;-40
2022/11/01 08:19:05;;;;;;;;;;;;;;;;;;5080584;28;19938;-40
2022/11/01 08:21:31;;;;;;;;;;;;;;;;;;5082762;28;19915;-40
2022/11/01 08:23:57;;;;;;;;;;;;;;;;;;5075043;28;19909;-40
2022/11/01 08:26:23;;;;;;;;;;;;;;;;;;5079521;28;20049;-40
2022/11/01 08:28:49;;;;;;;;;;;;;;;;;;5090324;28;19920;-40
2022/11/01 08:31:15;;;;;;;;;;;;;;;;;;5069714;28;19912;-40
2022/11/01 08:33:41;;;;;;;;;;;;;;;;;;5069651;28;19962;-40
2022/11/01 08:36:07;;;;;;;;;;;;;;;;;;5070343;28;19912;-40
2022/11/01 08:38:33;;;;;;;;;;;;;;;;;;5071825;28;19908;-40
2022/11/01 08:40:59;;;;;;;;;;;;;;;;;;5068545;28;19915;-40
2022/11/01 08:43:25;;;;;;;;;;;;;;;;;;5074327;28;19908;-40
2022/11/01 08:45:51;;;;;;;;;;;;;;;;;;5069089;28;20347;-40
2022/11/01 08:48:18;;;;;;;;;;;;;;;;;;5088378;28;19965;-40
2022/11/01 08:50:44;;;;;;;;;;;;;;;;;;5074999;28;20441;-40
2022/11/01 08:53:10;;;;;;;;;;;;;;;;;;5074397;28;19931;-40
2022/11/01 08:55:36;;;;;;;;;;;;;;;;;;5087274;28;19939;-40
2022/11/01 08:58:02;;;;;;;;;;;;;;;;;;5087657;28;19904;-40
2022/11/01 09:00:28;;;;;;;;;;;;;;;;;;5083382;28;19915;-40
2022/11/01 09:02:54;;;;;;;;;;;;;;;;;;5068895;28;20335;-40
2022/11/01 09:05:21;;;;;;;;;;;;;;;;;;5083746;28;19908;-40
2022/11/01 09:07:47;;;;;;;;;;;;;;;;;;5099316;28;19911;-40
2022/11/01 09:10:15;;;;;;;;;;;;;;;;;;5109557;28;19911;-40
2022/11/01 09:12:41;;;;;;;;;;;;;;;;;;5089620;28;19915;-40
2022/11/01 09:15:07;;;;;;;;;;;;;;;;;;5089073;28;19904;-40
2022/11/01 09:17:33;;;;;;;;;;;;;;;;;;5081358;28;19918;-40
2022/11/01 09:19:59;;;;;;;;;;;;;;;;;;5068809;28;19909;-40
2022/11/01 09:22:25;;;;;;;;;;;;;;;;;;5068172;28;19951;-40
2022/11/01 09:24:53;;;;;;;;;;;;;;;;;;5068951;28;19911;-40
2022/11/01 09:27:19;;;;;;;;;;;;;;;;;;5078245;28;19916;-40
2022/11/01 09:29:45;;;;;;;;;;;;;;;;;;5089028;28;19919;-40
2022/11/01 09:32:11;;;;;;;;;;;;;;;;;;5087262;28;19908;-40
2022/11/01 09:34:37;;;;;;;;;;;;;;;;;;5088866;28;19904;-40
2022/11/01 09:37:03;;;;;;;;;;;;;;;;;;5078525;28;19969;-40
2022/11/01 09:39:29;;;;;;;;;;;;;;;;;;5079039;28;19920;-40
2022/11/01 09:41:55;;;;;;;;;;;;;;;;;;5086700;28;19911;-40
2022/11/01 09:44:21;;;;;;;;;;;;;;;;;;5087698;28;19904;-40
2022/11/01 09:46:48;;;;;;;;;;;;;;;;;;5086674;28;19907;-40
2022/11/01 09:49:13;;;;;;;;;;;;;;;;;;5076859;28;20473;-40
2022/11/01 09:51:40;;;;;;;;;;;;;;;;;;5075990;28;20006;-40
2022/11/01 09:54:07;;;;;;;;;;;;;;;;;;5069084;28;19911;-40
2022/11/01 09:56:33;;;;;;;;;;;;;;;;;;5067317;28;19915;-40
2022/11/01 09:59:01;;;;;;;;;;;;;;;;;;5066898;28;19913;-40
2022/11/01 10:01:26;;;;;;;;;;;;;;;;;;5067107;28;20300;-40
2022/11/01 10:03:52;;;;;;;;;;;;;;;;;;5073193;28;19967;-40
2022/11/01 10:06:18;;;;;;;;;;;;;;;;;;5087392;28;20390;-40
2022/11/01 10:08:45;;;;;;;;;;;;;;;;;;5080995;28;20037;-40
2022/11/01 10:11:11;;;;;;;;;;;;;;;;;;5072450;28;20003;-40
2022/11/01 10:13:37;;;;;;;;;;;;;;;;;;5085230;28;20589;-40
2022/11/01 10:16:03;;;;;;;;;;;;;;;;;;5075971;28;19912;-40
2022/11/01 10:18:29;;;;;;;;;;;;;;;;;;5082235;28;19951;-40
2022/11/01 10:20:55;;;;;;;;;;;;;;;;;;5087670;28;19937;-40
2022/11/01 10:23:21;;;;;;;;;;;;;;;;;;5082615;28;19904;-40
2022/11/01 10:25:50;;;;;;;;;;;;;;;;;;5081249;28;19936;-40
2022/11/01 10:28:16;;;;;;;;;;;;;;;;;;5091035;28;19988;-40
2022/11/01 10:30:42;;;;;;;;;;;;;;;;;;5090015;28;20248;-40
2022/11/01 10:33:08;;;;;;;;;;;;;;;;;;5079298;28;20392;-40
2022/11/01 10:35:34;;;;;;;;;;;;;;;;;;5085357;28;19993;-40
2022/11/01 10:38:00;;;;;;;;;;;;;;;;;;5074052;28;19991;-40
2022/11/01 10:40:26;;;;;;;;;;;;;;;;;;5072896;28;20478;-40
2022/11/01 10:42:52;;;;;;;;;;;;;;;;;;5070807;28;19999;-40
2022/11/01 10:45:18;;;;;;;;;;;;;;;;;;5075285;28;19908;-40
2022/11/01 10:47:45;;;;;;;;;;;;;;;;;;5109329;28;19911;-40
2022/11/01 10:50:11;;;;;;;;;;;;;;;;;;5105541;28;19956;-40
2022/11/01 10:52:37;;;;;;;;;;;;;;;;;;5086009;28;19999;-40
2022/11/01 10:55:03;;;;;;;;;;;;;;;;;;5077278;28;19959;-40
2022/11/01 10:57:29;;;;;;;;;;;;;;;;;;5097581;28;19923;-40
2022/11/01 10:59:56;;;;;;;;;;;;;;;;;;5105136;28;19956;-40
2022/11/01 11:02:22;;;;;;;;;;;;;;;;;;5110583;28;20389;-40
2022/11/01 11:04:48;;;;;;;;;;;;;;;;;;5110875;28;19916;-40
2022/11/01 11:07:15;;;;;;;;;;;;;;;;;;5111197;28;19914;-40
2022/11/01 11:09:41;;;;;;;;;;;;;;;;;;5102947;28;20455;-40
2022/11/01 11:12:07;;;;;;;;;;;;;;;;;;5070077;28;19908;-40
2022/11/01 11:14:33;;;;;;;;;;;;;;;;;;5070724;28;19904;-40
2022/11/01 11:16:59;;;;;;;;;;;;;;;;;;5070655;28;19921;-40
2022/11/01 11:19:25;;;;;;;;;;;;;;;;;;5051738;28;19915;-40
2022/11/01 11:21:51;;;;;;;;;;;;;;;;;;5052004;28;20345;-40
2022/11/01 11:24:18;;;;;;;;;;;;;;;;;;5073287;28;20038;-40
2022/11/01 11:26:45;;;;;;;;;;;;;;;;;;5088116;28;20010;-40
2022/11/01 11:29:11;;;;;;;;;;;;;;;;;;5071438;28;20500;-40
2022/11/01 11:31:37;;;;;;;;;;;;;;;;;;5090242;28;19977;-40
2022/11/01 11:34:03;;;;;;;;;;;;;;;;;;5090636;28;19904;-40
2022/11/01 11:36:29;;;;;;;;;;;;;;;;;;5071996;28;19912;-40
2022/11/01 11:38:55;;;;;;;;;;;;;;;;;;5086726;28;19912;-40
2022/11/01 11:41:21;;;;;;;;;;;;;;;;;;5089974;28;19904;-40
2022/11/01 11:43:47;;;;;;;;;;;;;;;;;;5083864;28;19916;-40
2022/11/01 11:46:13;;;;;;;;;;;;;;;;;;5069481;28;19911;-40
2022/11/01 11:48:39;;;;;;;;;;;;;;;;;;5073383;28;20010;-40
2022/11/01 11:51:05;;;;;;;;;;;;;;;;;;5071540;28;19999;-40
2022/11/01 11:53:32;;;;;;;;;;;;;;;;;;5083709;28;19954;-40
2022/11/01 11:55:58;;;;;;;;;;;;;;;;;;5069378;28;19919;-40
2022/11/01 11:58:24;;;;;;;;;;;;;;;;;;5068898;28;20303;-40
2022/11/01 12:00:51;;;;;;;;;;;;;;;;;;5082640;28;20330;-40
2022/11/01 12:03:17;;;;;;;;;;;;;;;;;;5070011;28;19908;-40
2022/11/01 12:05:43;;;;;;;;;;;;;;;;;;5069124;28;19904;-40
2022/11/01 12:08:09;;;;;;;;;;;;;;;;;;5069145;28;20506;-40
2022/11/01 12:10:35;;;;;;;;;;;;;;;;;;5070117;28;19904;-40
2022/11/01 12:13:01;;;;;;;;;;;;;;;;;;5069668;28;20406;-40
2022/11/01 12:15:27;;;;;;;;;;;;;;;;;;5068464;28;19912;-40
2022/11/01 12:17:53;;;;;;;;;;;;;;;;;;5073865;28;20360;-39
2022/11/01 12:20:19;;;;;;;;;;;;;;;;;;5109560;28;19954;-39
2022/11/01 12:22:45;;;;;;;;;;;;;;;;;;5100488;28;19904;-39
2022/11/01 12:25:11;;;;;;;;;;;;;;;;;;5087128;28;20665;-39
2022/11/01 12:27:37;;;;;;;;;;;;;;;;;;5068986;28;19905;-39
2022/11/01 12:30:04;;;;;;;;;;;;;;;;;;5080213;28;19907;-39
2022/11/01 12:32:30;;;;;;;;;;;;;;;;;;5088874;28;19995;-39
2022/11/01 12:34:56;;;;;;;;;;;;;;;;;;5088050;28;19918;-39
2022/11/01 12:37:22;;;;;;;;;;;;;;;;;;5087176;28;19943;-39
2022/11/01 12:39:48;;;;;;;;;;;;;;;;;;5087574;28;19908;-39
2022/11/01 12:42:14;;;;;;;;;;;;;;;;;;5088297;28;19962;-39
2022/11/01 12:44:40;;;;;;;;;;;;;;;;;;5088369;28;19912;-39
2022/11/01 12:47:06;;;;;;;;;;;;;;;;;;5088556;28;19904;-39
2022/11/01 12:49:32;;;;;;;;;;;;;;;;;;5088928;28;19998;-39
2022/11/01 12:51:58;;;;;;;;;;;;;;;;;;5075414;28;19940;-40
2022/11/01 12:54:26;;;;;;;;;;;;;;;;;;5090924;28;19908;-40
2022/11/01 12:56:52;;;;;;;;;;;;;;;;;;5088376;28;19912;-40
2022/11/01 12:59:18;;;;;;;;;;;;;;;;;;5075973;28;20007;-40
2022/11/01 13:01:44;;;;;;;;;;;;;;;;;;5069147;28;19970;-40
2022/11/01 13:04:09;;;;;;;;;;;;;;;;;;5090490;28;19922;-40
2022/11/01 13:06:35;;;;;;;;;;;;;;;;;;5070021;28;19950;-40
2022/11/01 13:09:01;;;;;;;;;;;;;;;;;;5088793;28;19904;-40
2022/11/01 13:11:27;;;;;;;;;;;;;;;;;;5078767;28;20022;-40
2022/11/01 13:13:53;;;;;;;;;;;;;;;;;;5067631;28;19908;-40
2022/11/01 13:16:19;;;;;;;;;;;;;;;;;;5067780;28;19959;-40
2022/11/01 13:18:45;;;;;;;;;;;;;;;;;;5067724;28;19966;-40
2022/11/01 13:21:11;;;;;;;;;;;;;;;;;;5083155;28;19912;-39
2022/11/01 13:23:37;;;;;;;;;;;;;;;;;;5087449;28;19915;-40
2022/11/01 13:26:03;;;;;;;;;;;;;;;;;;5087309;28;19927;-40
2022/11/01 13:28:30;;;;;;;;;;;;;;;;;;5084427;28;19908;-39
2022/11/01 13:30:55;;;;;;;;;;;;;;;;;;5087818;28;19918;-40
2022/11/01 13:33:21;;;;;;;;;;;;;;;;;;5071132;28;19908;-40
2022/11/01 13:35:47;;;;;;;;;;;;;;;;;;5084466;28;19966;-40
2022/11/01 13:38:16;;;;;;;;;;;;;;;;;;5087625;28;19946;-40
2022/11/01 13:40:42;;;;;;;;;;;;;;;;;;5086204;28;20386;-39
2022/11/01 13:43:08;;;;;;;;;;;;;;;;;;5085399;28;19987;-40
2022/11/01 13:45:34;;;;;;;;;;;;;;;;;;5085004;28;20003;-40
2022/11/01 13:48:00;;;;;;;;;;;;;;;;;;5067760;28;20003;-40
2022/11/01 13:50:26;;;;;;;;;;;;;;;;;;5067441;28;19916;-40
2022/11/01 13:52:52;;;;;;;;;;;;;;;;;;5067474;28;19908;-40
2022/11/01 13:55:18;;;;;;;;;;;;;;;;;;5067296;28;19904;-40
2022/11/01 13:57:44;;;;;;;;;;;;;;;;;;5067668;28;19912;-40
2022/11/01 14:00:10;;;;;;;;;;;;;;;;;;5086618;28;19916;-40
2022/11/01 14:02:36;;;;;;;;;;;;;;;;;;5085744;28;19912;-40
2022/11/01 14:05:02;;;;;;;;;;;;;;;;;;5086726;28;19935;-40
2022/11/01 14:07:29;;;;;;;;;;;;;;;;;;5087344;28;19949;-40
2022/11/01 14:09:55;;;;;;;;;;;;;;;;;;5074740;28;20630;-40
2022/11/01 14:12:21;;;;;;;;;;;;;;;;;;5076522;28;20589;-39
2022/11/01 14:14:47;;;;;;;;;;;;;;;;;;5071789;28;19919;-40
2022/11/01 14:17:13;;;;;;;;;;;;;;;;;;5066951;28;20069;-40
2022/11/01 14:19:40;;;;;;;;;;;;;;;;;;5067203;28;19919;-40
2022/11/01 14:22:06;;;;;;;;;;;;;;;;;;5071038;28;19946;-40
2022/11/01 14:24:32;;;;;;;;;;;;;;;;;;5087066;28;20447;-40
2022/11/01 14:26:58;;;;;;;;;;;;;;;;;;5073264;28;19908;-39
2022/11/01 14:29:24;;;;;;;;;;;;;;;;;;5080744;28;19908;-40
2022/11/01 14:31:51;;;;;;;;;;;;;;;;;;5087121;28;19912;-40
2022/11/01 14:34:17;;;;;;;;;;;;;;;;;;5087151;28;19908;-40
2022/11/01 14:36:43;;;;;;;;;;;;;;;;;;5085428;28;19958;-40
2022/11/01 14:39:09;;;;;;;;;;;;;;;;;;5087021;28;19908;-39
2022/11/01 14:41:35;;;;;;;;;;;;;;;;;;5082454;28;19943;-40
2022/11/01 14:44:01;;;;;;;;;;;;;;;;;;5069455;28;19914;-40
2022/11/01 14:46:26;;;;;;;;;;;;;;;;;;5076285;28;19998;-40
2022/11/01 14:48:53;;;;;;;;;;;;;;;;;;5099138;28;19910;-40
2022/11/01 14:51:19;;;;;;;;;;;;;;;;;;5081147;28;19954;-40
2022/11/01 14:53:45;;;;;;;;;;;;;;;;;;5099339;28;19951;-40
2022/11/01 14:56:11;;;;;;;;;;;;;;;;;;5089760;28;19916;-40
2022/11/01 14:58:37;;;;;;;;;;;;;;;;;;5105337;28;19942;-40
2022/11/01 15:01:03;;;;;;;;;;;;;;;;;;5093433;28;19918;-40
2022/11/01 15:03:29;;;;;;;;;;;;;;;;;;5092217;28;20306;-40
2022/11/01 15:05:56;;;;;;;;;;;;;;;;;;5098241;28;20295;-40
2022/11/01 15:08:22;;;;;;;;;;;;;;;;;;5105472;28;20311;-40
2022/11/01 15:10:47;;;;;;;;;;;;;;;;;;5105872;28;19956;-40
2022/11/01 15:13:16;;;;;;;;;;;;;;;;;;5085503;28;20030;-40
2022/11/01 15:15:42;;;;;;;;;;;;;;;;;;5088921;28;19923;-40
2022/11/01 15:18:08;;;;;;;;;;;;;;;;;;5087517;28;20412;-40
2022/11/01 15:20:35;;;;;;;;;;;;;;;;;;5090515;28;20235;-40
2022/11/01 15:23:01;;;;;;;;;;;;;;;;;;5089228;28;19961;-40
2022/11/01 15:25:28;;;;;;;;;;;;;;;;;;5087871;28;19998;-40
2022/11/01 15:27:54;;;;;;;;;;;;;;;;;;5088759;28;20431;-40
2022/11/01 15:30:20;;;;;;;;;;;;;;;;;;5088922;28;19950;-40
2022/11/01 15:32:46;;;;;;;;;;;;;;;;;;5088545;28;20299;-40
2022/11/01 15:35:11;;;;;;;;;;;;;;;;;;5088477;28;20302;-40
2022/11/01 15:37:37;;;;;;;;;;;;;;;;;;5088028;28;19908;-40
2022/11/01 15:40:03;;;;;;;;;;;;;;;;;;5083873;28;20337;-40
2022/11/01 15:42:32;;;;;;;;;;;;;;;;;;5086082;28;19965;-40
2022/11/01 15:44:59;;;;;;;;;;;;;;;;;;5083681;28;19912;-40
2022/11/01 15:47:26;;;;;;;;;;;;;;;;;;5090542;28;19912;-40
2022/11/01 15:49:53;;;;;;;;;;;;;;;;;;5072529;28;19907;-40
2022/11/01 15:52:19;;;;;;;;;;;;;;;;;;5087493;28;19914;-40
2022/11/01 15:54:45;;;;;;;;;;;;;;;;;;5080862;28;19979;-39
2022/11/01 15:57:11;;;;;;;;;;;;;;;;;;5076618;28;19930;-40
2022/11/01 15:59:37;;;;;;;;;;;;;;;;;;5077323;28;20380;-39
2022/11/01 16:02:03;;;;;;;;;;;;;;;;;;5110394;28;19915;-40
2022/11/01 16:04:29;;;;;;;;;;;;;;;;;;5088890;28;19951;-40
2022/11/01 16:06:55;;;;;;;;;;;;;;;;;;5088265;28;20010;-40
2022/11/01 16:09:21;;;;;;;;;;;;;;;;;;5083040;28;20418;-39
2022/11/01 16:11:47;;;;;;;;;;;;;;;;;;5057654;28;19947;-39
2022/11/01 16:14:13;;;;;;;;;;;;;;;;;;5086838;28;20010;-39
2022/11/01 16:16:39;;;;;;;;;;;;;;;;;;5087655;28;20379;-39
2022/11/01 16:19:06;;;;;;;;;;;;;;;;;;5095316;28;19911;-39
2022/11/01 16:21:32;;;;;;;;;;;;;;;;;;5108560;28;19904;-39
2022/11/01 16:23:59;;;;;;;;;;;;;;;;;;5107453;28;19911;-39
2022/11/01 16:26:25;;;;;;;;;;;;;;;;;;5107871;28;20311;-40
2022/11/01 16:28:53;;;;;;;;;;;;;;;;;;5107799;28;20340;-40
2022/11/01 16:31:19;;;;;;;;;;;;;;;;;;5108586;28;20003;-39
2022/11/01 16:33:45;;;;;;;;;;;;;;;;;;5108245;28;19960;-39
2022/11/01 16:36:11;;;;;;;;;;;;;;;;;;5088263;28;19912;-39
2022/11/01 16:38:38;;;;;;;;;;;;;;;;;;5077072;28;20453;-39
2022/11/01 16:41:04;;;;;;;;;;;;;;;;;;5096196;28;19908;-40
2022/11/01 16:43:31;;;;;;;;;;;;;;;;;;5106619;28;19915;-39
2022/11/01 16:45:58;;;;;;;;;;;;;;;;;;5087257;28;19994;-39
2022/11/01 16:48:24;;;;;;;;;;;;;;;;;;5086878;28;20294;-39
2022/11/01 16:50:50;;;;;;;;;;;;;;;;;;5087195;28;19954;-39
2022/11/01 16:53:15;;;;;;;;;;;;;;;;;;5087079;28;19947;-39
2022/11/01 16:55:41;;;;;;;;;;;;;;;;;;5088135;28;19926;-39
2022/11/01 16:58:07;;;;;;;;;;;;;;;;;;5090144;28;19922;-39
2022/11/01 17:00:33;;;;;;;;;;;;;;;;;;5087083;28;19920;-39
2022/11/01 17:03:00;;;;;;;;;;;;;;;;;;5070167;28;19961;-39
2022/11/01 17:05:27;;;;;;;;;;;;;;;;;;5070891;28;19913;-39
2022/11/01 17:07:54;;;;;;;;;;;;;;;;;;5071032;28;19951;-39
2022/11/01 17:10:20;;;;;;;;;;;;;;;;;;5095611;28;19910;-39
2022/11/01 17:12:46;;;;;;;;;;;;;;;;;;5075294;28;19908;-39
2022/11/01 17:15:12;;;;;;;;;;;;;;;;;;5087326;28;20042;-39
2022/11/01 17:17:38;;;;;;;;;;;;;;;;;;5085615;28;20018;-39
2022/11/01 17:20:04;;;;;;;;;;;;;;;;;;5085977;28;19907;-40
2022/11/01 17:22:30;;;;;;;;;;;;;;;;;;5084491;28;20053;-39
2022/11/01 17:24:56;;;;;;;;;;;;;;;;;;5087189;28;19991;-39
2022/11/01 17:27:22;;;;;;;;;;;;;;;;;;5072716;28;19908;-39
2022/11/01 17:29:50;;;;;;;;;;;;;;;;;;5066380;28;20038;-39
2022/11/01 17:32:16;;;;;;;;;;;;;;;;;;5068950;28;19908;-40
2022/11/01 17:34:43;;;;;;;1.20;1.10;;;;;;;;;;5085994;28;20441;-39
2022/11/01 17:37:13;;;;;;;1.00;0.90;;;;;;;;;;5103910;28;20035;-39
2022/11/01 17:39:40;;;;;;;1.38;1.10;;;;;;;;;;5079263;28;20031;-39
2022/11/01 17:42:06;;;;;;;1.10;1.00;;;;;;;;;;5084448;28;20078;-39
2022/11/01 17:44:32;;;;;;;1.00;0.90;;;;;;;;;;5054588;28;20507;-39
2022/11/01 17:46:59;;;;;;;1.70;0.95;;;;;;;;;;5084115;28;20119;-39
2022/11/01 17:49:25;;;;;;;1.38;1.23;;;;;;;;;;5084260;28;20035;-39
2022/11/01 17:51:51;;;;;;;1.02;0.98;;;;;;;;;;5085353;28;20957;-39
2022/11/01 17:54:18;;;;;;;;;;;;;;;;;;5079708;28;20032;-39
2022/11/01 17:56:44;;;;;;;;;;;;;;;;;;5069748;28;19920;-39
2022/11/01 17:59:10;;;;;;;1.77;1.27;;;;;;;;;;5076286;28;19962;-39
2022/11/01 18:01:37;;;;;;;5.28;1.95;;;;;;;;;;5071418;28;20457;-39
2022/11/01 18:04:04;;;;;;;1.92;1.42;;;;;;;;;;5068195;28;20025;-39
2022/11/01 18:06:32;;;;;;;3.22;1.90;;;;;;;;;;5075280;28;20387;-39
2022/11/01 18:08:58;;;;;;;1.65;1.40;;;;;;;;;;5070693;28;20369;-39
2022/11/01 18:11:43;;;;;;;1.42;1.13;;;;;;;;;;5071115;28;20052;-40
2022/11/01 18:14:12;;;;;;;0.95;0.93;;;;;;;;;;5102698;28;20055;-39
2022/11/01 18:16:57;;;;;;;1.35;1.15;;;;;;;;;;5099385;28;20024;-40
2022/11/01 18:19:42;;;;;;;0.93;0.80;;;;;;;;;;5068858;28;20090;-39
2022/11/01 18:22:09;;;;;;;;;;;;;;;;;;5058029;28;20024;-40
2022/11/01 18:24:35;;;;;;;;;;;;;;;;;;5065326;28;19955;-39
2022/11/01 18:27:02;;;;;;;;;;;;;;;;;;5082931;28;19927;-39
2022/11/01 18:29:27;;;;;;;;;;;;;;;;;;5070596;28;19987;-39
2022/11/01 18:31:53;;;;;;;;;;;;;;;;;;5088476;28;20050;-39
2022/11/01 18:34:20;;;;;;;;;;;;;;;;;;5076586;28;20405;-40
2022/11/01 18:36:46;;;;;;;;;;;;;;;;;;5046375;28;19909;-39
2022/11/01 18:39:12;;;;;;;;;;;;;;;;;;5081355;28;19908;-39
2022/11/01 18:41:38;;;;;;;;;;;;;;;;;;5083422;28;20413;-39
2022/11/01 18:44:04;;;;;;;;;;;;;;;;;;5082483;28;19912;-39
2022/11/01 18:46:30;;;;;;;;;;;;;;;;;;5054244;28;20444;-39
2022/11/01 18:48:58;;;;;;;;;;;;;;;;;;5078364;28;19912;-39
2022/11/01 18:51:25;;;;;;;;;;;;;;;;;;5071146;28;19947;-39
2022/11/01 18:53:51;;;;;;;;;;;;;;;;;;5058692;28;19912;-39
2022/11/01 18:56:17;;;;;;;;;;;;;;;;;;5070226;28;19912;-39
2022/11/01 18:58:43;;;;;;;;;;;;;;;;;;5071331;28;19915;-39
2022/11/01 19:01:09;;;;;;;;;;;;;;;;;;5077835;28;19916;-39
2022/11/01 19:03:34;;;;;;;;;;;;;;;;;;5078053;28;19908;-39
2022/11/01 19:06:00;;;;;;;;;;;;;;;;;;5080197;28;19919;-39
2022/11/01 19:08:27;;;;;;;;;;;;;;;;;;5077233;28;19934;-39
2022/11/01 19:10:53;;;;;;;;;;;;;;;;;;5058839;28;20298;-39
2022/11/01 19:13:19;;;;;;;;;;;;;;;;;;5087182;28;19951;-39
2022/11/01 19:15:45;;;;;;;;;;;;;;;;;;5064305;28;19935;-39
2022/11/01 19:18:11;;;;;;;;;;;;;;;;;;5076125;28;19913;-39
2022/11/01 19:20:37;;;;;;;;;;;;;;;;;;5079254;28;19909;-39
2022/11/01 19:23:03;;;;;;;;;;;;;;;;;;5076316;28;19908;-39
2022/11/01 19:25:29;;;;;;;;;;;;;;;;;;5091721;28;19930;-39
2022/11/01 19:27:55;;;;;;;;;;;;;;;;;;5088813;28;19916;-39
2022/11/01 19:30:21;;;;;;;;;;;;;;;;;;5072993;28;20338;-39
2022/11/01 19:32:47;;;;;;;;;;;;;;;;;;5085122;28;19909;-39
2022/11/01 19:35:13;;;;;;;;;;;;;;;;;;5099916;28;19908;-39
2022/11/01 19:37:39;;;;;;;;;;;;;;;;;;5084884;28;19943;-39
2022/11/01 19:40:04;;;;;;;;;;;;;;;;;;5079866;28;19912;-39
2022/11/01 19:42:30;;;;;;;;;;;;;;;;;;5078916;28;19908;-39
2022/11/01 19:44:56;;;;;;;;;;;;;;;;;;5075130;28;20334;-39
2022/11/01 19:47:22;;;;;;;;;;;;;;;;;;5082753;28;19955;-39
2022/11/01 19:49:48;;;;;;;;;;;;;;;;;;5068197;28;21251;-39
2022/11/01 19:52:14;;;;;;;;;;;;;;;;;;5062877;28;20487;-39
2022/11/01 19:54:40;;;;;;;;;;;;;;;;;;5041946;28;19928;-39
2022/11/01 19:57:06;;;;;;;;;;;;;;;;;;5060455;28;20045;-39
2022/11/01 19:59:32;;;;;;;;;;;;;;;;;;5057541;28;19915;-39
2022/11/01 20:01:58;;;;;;;;;;;;;;;;;;5060834;28;19962;-39
2022/11/01 20:04:25;;;;;;;;;;;;;;;;;;5060808;28;19920;-39
2022/11/01 20:06:51;;;;;;;;;;;;;;;;;;5075297;28;19958;-39
2022/11/01 20:09:17;;;;;;;;;;;;;;;;;;5067255;28;19919;-39
2022/11/01 20:11:43;;;;;;;;;;;;;;;;;;5059453;28;19912;-39
2022/11/01 20:14:11;;;;;;;;;;;;;;;;;;5050548;28;19997;-39
2022/11/01 20:16:37;;;;;;;;;;;;;;;;;;5058864;28;19939;-39
2022/11/01 20:19:03;;;;;;;;;;;;;;;;;;5058714;28;19912;-39
2022/11/01 20:21:29;;;;;;;;;;;;;;;;;;5072387;28;21924;-39
2022/11/01 20:23:55;;;;;;;;;;;;;;;;;;5062251;28;19924;-39
2022/11/01 20:26:21;;;;;;;;;;;;;;;;;;5059975;28;20381;-39
2022/11/01 20:28:48;;;;;;;;;;;;;;;;;;5060173;28;20432;-39
2022/11/01 20:31:13;;;;;;;;;;;;;;;;;;5061845;28;19959;-39
2022/11/01 20:33:39;;;;;;;;;;;;;;;;;;5060439;28;20421;-39
2022/11/01 20:36:05;;;;;;;;;;;;;;;;;;5073577;28;19916;-39
2022/11/01 20:38:31;;;;;;;;;;;;;;;;;;5055405;28;19931;-39
2022/11/01 20:40:58;;;;;;;;;;;;;;;;;;5060882;28;19961;-39
2022/11/01 20:43:23;;;;;;;;;;;;;;;;;;5061464;28;20642;-39
2022/11/01 20:45:49;;;;;;;;;;;;;;;;;;5063349;28;19942;-39
2022/11/01 20:48:17;;;;;;;;;;;;;;;;;;5076468;28;20319;-39
2022/11/01 20:50:43;;;;;;;;;;;;;;;;;;5083671;28;19950;-57
2022/11/01 20:53:08;;;;;;;;;;;;;;;;;;5080513;28;19951;-56
2022/11/01 20:55:34;;;;;;;;;;;;;;;;;;5068267;28;19958;-57
2022/11/01 20:58:00;;;;;;;;;;;;;;;;;;5069129;28;19959;-55
2022/11/01 21:00:26;;;;;;;;;;;;;;;;;;5101423;28;20204;-55
2022/11/01 21:02:52;;;;;;;;;;;;;;;;;;5068817;28;19934;-56
2022/11/01 21:05:18;;;;;;;;;;;;;;;;;;5068429;28;20034;-56
2022/11/01 21:07:44;;;;;;;;;;;;;;;;;;5072389;28;20344;-57
2022/11/01 21:10:10;;;;;;;;;;;;;;;;;;5087348;28;19908;-56
2022/11/01 21:12:35;;;;;;;;;;;;;;;;;;5088450;28;20276;-55
2022/11/01 21:15:01;;;;;;;;;;;;;;;;;;5104220;28;19990;-56
2022/11/01 21:17:28;;;;;;;;;;;;;;;;;;5109045;28;19961;-55
2022/11/01 21:19:53;;;;;;;;;;;;;;;;;;5109093;28;20379;-55
2022/11/01 21:22:19;;;;;;;;;;;;;;;;;;5108920;28;19946;-56
2022/11/01 21:24:45;;;;;;;;;;;;;;;;;;5108540;28;19904;-56
2022/11/01 21:27:11;;;;;;;;;;;;;;;;;;5092805;28;19919;-56
2022/11/01 21:29:38;;;;;;;;;;;;;;;;;;5088127;28;20272;-57